Flight Track Log - Related Links

Times and Time Zones

All times are in EST time to prevent confusion due to time zone crossing. See the ACA953 flight status page for this flight to view local times or setup timezone preferences in your user account.

Time Position Orientation Groundspeed Altitude Reporting Facility
EST Latitude Longitude Course Direction KTS MPH feet Rate Location/Type
Sun 02:37:00 PM 14.9158 -61.0921 345° North  Level FlightAware Approximate
Sun 02:38:00 PM 15.0240 -61.1218 345° North  Level FlightAware Approximate
Sun 02:39:00 PM 15.1323 -61.1516 345° North  Level FlightAware Approximate
Sun 02:40:00 PM 15.2405 -61.1814 345° North  Level FlightAware Approximate
Sun 02:41:00 PM 15.3488 -61.2112 345° North  Level FlightAware Approximate
Sun 02:42:00 PM 15.4570 -61.2410 345° North  Level FlightAware Approximate
Sun 02:43:00 PM 15.5652 -61.2709 345° North  Level FlightAware Approximate
Sun 02:44:00 PM 15.6734 -61.3008 345° North  Level FlightAware Approximate
Sun 02:45:00 PM 15.7816 -61.3307 345° North  Level FlightAware Approximate
Sun 02:46:00 PM 15.8899 -61.3606 345° North  Level FlightAware Approximate
Sun 02:47:00 PM 15.9981 -61.3906 345° North  Level FlightAware Approximate
Sun 02:48:00 PM 16.1063 -61.4207 345° North  Level FlightAware Approximate
Sun 02:49:00 PM 16.2145 -61.4507 345° North  Level FlightAware Approximate
Sun 02:50:00 PM 16.3227 -61.4808 345° North  Level FlightAware Approximate
Sun 02:51:00 PM 16.4309 -61.5109 345° North  Level FlightAware Approximate
Sun 02:52:00 PM 16.5391 -61.5411 345° North  Level FlightAware Approximate
Sun 02:53:00 PM 16.6462 -61.5751 345° North  Level Estimated
Sun 02:54:00 PM 16.7545 -61.6048 345° North  Level FlightAware Approximate
Sun 02:55:00 PM 16.8595 -61.6332 346° North  Level FlightAware Approximate
Sun 02:56:00 PM 16.9645 -61.6616 346° North  Level FlightAware Approximate
Sun 02:57:00 PM 17.0693 -61.6905 345° North  Level FlightAware Approximate
Sun 02:58:00 PM 17.1741 -61.7196 345° North  Level FlightAware Approximate
Sun 02:59:00 PM 17.2789 -61.7487 345° North  Level FlightAware Approximate
Sun 02:59:42 PM 16.9500 -61.6667 345° North 410 472 38,000  Level San Juan Center
Sun 03:00:00 PM 17.3837 -61.7779 345° North  Level FlightAware Approximate
Sun 03:00:43 PM 17.0500 -61.7000 342° North 420 483 38,000  Level San Juan Center
Sun 03:01:00 PM 17.4885 -61.8070 345° North  Level FlightAware Approximate
Sun 03:01:42 PM 17.1667 -61.7333 345° North 420 483 38,000  Level San Juan Center
Sun 03:02:00 PM 17.5933 -61.8363 345° North  Level FlightAware Approximate
Sun 03:02:43 PM 17.2667 -61.7667 342° North 420 483 38,000  Level San Juan Center
Sun 03:03:00 PM 17.6981 -61.8655 345° North  Level FlightAware Approximate
Sun 03:03:43 PM 17.4000 -61.8000 347° North 420 483 38,000  Level San Juan Center
Sun 03:04:00 PM 17.8029 -61.8948 345° North  Level FlightAware Approximate
Sun 03:04:43 PM 17.5167 -61.8333 345° North 420 483 38,000  Level San Juan Center
Sun 03:05:00 PM 17.9077 -61.9241 345° North  Level FlightAware Approximate
Sun 03:05:43 PM 17.6333 -61.8667 345° North 420 483 38,000  Level San Juan Center
Sun 03:06:43 PM 17.7333 -61.8833 351° North 420 483 38,000  Level San Juan Center
Sun 03:07:44 PM 17.8500 -61.9167 345° North 420 483 38,000  Level San Juan Center
Sun 03:08:43 PM 17.9667 -61.9500 345° North 420 483 38,000  Level San Juan Center
Sun 03:09:44 PM 18.0833 -61.9833 345° North 420 483 38,000  Level San Juan Center
Sun 03:10:44 PM 18.2000 -62.0000 352° North 420 483 38,000  Level San Juan Center
Sun 03:11:44 PM 18.3167 -62.0167 352° North 430 495 38,000  Level San Juan Center
Sun 03:12:44 PM 18.4333 -62.0500 345° North 430 495 38,000  Level San Juan Center
Sun 03:13:44 PM 18.5500 -62.0667 352° North 430 495 38,000 50 Level San Juan Center
Sun 03:14:44 PM 18.6667 -62.0833 352° North 430 495 38,100 50 Climbing San Juan Center
Sun 03:15:44 PM 18.7833 -62.1167 345° North 430 495 38,100 -298 Level San Juan Center
Sun 03:16:45 PM 18.9000 -62.1333 352° North 420 483 37,500 -793 Descending San Juan Center
Sun 03:17:45 PM 19.0167 -62.1500 352° North 430 495 36,500 -750 Descending San Juan Center
Sun 03:18:45 PM 19.1500 -62.1833 347° North 440 506 36,000 -250 Descending San Juan Center
Sun 03:19:45 PM 19.2667 -62.2000 352° North 440 506 36,000  Level San Juan Center
Sun 03:20:45 PM 19.3833 -62.2333 345° North 440 506 36,000  Level San Juan Center
Sun 03:21:45 PM 19.5000 -62.2500 352° North 440 506 36,000  Level San Juan Center
Sun 03:22:45 PM 19.6167 -62.2667 352° North 440 506 36,000  Level San Juan Center
Sun 03:23:45 PM 19.7333 -62.3000 345° North 430 495 36,000  Level San Juan Center
Sun 03:24:45 PM 19.8667 -62.3167 353° North 430 495 36,000  Level San Juan Center
Sun 03:25:45 PM 19.9833 -62.3500 345° North 440 506 36,000  Level San Juan Center
Sun 03:26:46 PM 20.0833 -62.3667 351° North 420 483 36,000  Level San Juan Center
Sun 03:27:46 PM 20.2000 -62.3833 352° North 420 483 36,000  Level San Juan Center
Sun 03:28:46 PM 20.3167 -62.4000 352° North 430 495 36,000  Level San Juan Center
Sun 03:29:46 PM 20.4333 -62.4333 345° North 420 483 36,000  Level San Juan Center
Sun 03:31:00 PM 20.5635 -62.4559 350° North  Level FlightAware Approximate
Sun 03:38:00 PM 21.3065 -62.6015 350° North  Level FlightAware Approximate
Sun 03:39:00 PM 21.4127 -62.6226 349° North  Level FlightAware Approximate
Sun 03:40:00 PM 21.5187 -62.6440 349° North  Level FlightAware Approximate
Sun 03:41:00 PM 21.6248 -62.6654 349° North  Level FlightAware Approximate
Sun 03:42:00 PM 21.7308 -62.6869 349° North  Level FlightAware Approximate
Sun 03:43:00 PM 21.8369 -62.7084 349° North  Level FlightAware Approximate
Sun 03:43:38 PM 20.5333 -62.4500 349° North 415 478 36,000  Level New York Oceanic (ODAPS)
Sun 03:44:00 PM 21.9429 -62.7299 349° North  Level FlightAware Approximate
Sun 03:45:00 PM 22.0489 -62.7515 349° North  Level FlightAware Approximate
Sun 03:46:00 PM 22.1550 -62.7731 349° North  Level FlightAware Approximate
Sun 03:47:00 PM 22.2643 -62.7954 349° North  Level FlightAware Approximate
Sun 03:48:00 PM 22.3736 -62.8177 349° North  Level FlightAware Approximate
Sun 03:49:00 PM 22.4829 -62.8401 349° North  Level FlightAware Approximate
Sun 03:50:00 PM 22.7015 -62.8859 349° North 415 478 36,000  Level FlightAware Transoceanic
Sun 03:51:00 PM 22.8156 -62.9093 349° North 415 478 36,000  Level FlightAware Transoceanic
Sun 03:52:00 PM 22.9297 -62.9326 349° North 415 478 36,000  Level FlightAware Transoceanic
Sun 03:53:00 PM 23.0437 -62.9560 349° North 415 478 36,000  Level FlightAware Transoceanic
Sun 03:54:00 PM 23.1578 -62.9795 349° North 415 478 36,000  Level FlightAware Transoceanic
Sun 03:55:00 PM 23.2719 -63.0029 349° North 415 478 36,000  Level FlightAware Transoceanic
Sun 03:56:00 PM 23.3859 -63.0264 349° North 415 478 36,000  Level FlightAware Transoceanic
Sun 03:57:00 PM 23.5000 -63.0500 349° North 415 478 36,000  Level FlightAware Transoceanic
Sun 03:58:00 PM 23.6129 -63.0732 349° North 415 478 36,000  Level FlightAware Transoceanic
Sun 03:58:21 PM 23.5000 -63.0500 349° North 420 483 36,000  Level New York Oceanic (ODAPS)
Sun 03:59:00 PM 23.7258 -63.0965 349° North 415 478 36,000  Level FlightAware Transoceanic
Sun 04:00:00 PM 23.8388 -63.1198 349° North 415 478 36,000  Level FlightAware Transoceanic
Sun 04:01:00 PM 23.9517 -63.1431 349° North 415 478 36,000  Level FlightAware Transoceanic
Sun 04:02:00 PM 24.0646 -63.1665 349° North 415 478 36,000  Level FlightAware Transoceanic
Sun 04:03:00 PM 24.1775 -63.1899 349° North 415 478 36,000  Level FlightAware Transoceanic
Sun 04:04:00 PM 24.4210 -63.2405 349° North 420 483 36,000  Level FlightAware Transoceanic
Sun 04:05:00 PM 24.5361 -63.2645 349° North 420 483 36,000  Level FlightAware Transoceanic
Sun 04:06:00 PM 24.6512 -63.2886 349° North 420 483 36,000  Level FlightAware Transoceanic
Sun 04:07:00 PM 24.7663 -63.3126 349° North 420 483 36,000  Level FlightAware Transoceanic
Sun 04:08:00 PM 24.8814 -63.3368 349° North 420 483 36,000  Level FlightAware Transoceanic
Sun 04:09:00 PM 24.9965 -63.3610 349° North 420 483 36,000  Level FlightAware Transoceanic
Sun 04:10:00 PM 25.1115 -63.3852 349° North 420 483 36,000  Level FlightAware Transoceanic
Sun 04:11:00 PM 25.2266 -63.4095 349° North 420 483 36,000  Level FlightAware Transoceanic
Sun 04:12:00 PM 25.3417 -63.4338 349° North 420 483 36,000  Level FlightAware Transoceanic
Sun 04:13:00 PM 25.4568 -63.4582 349° North 420 483 36,000  Level FlightAware Transoceanic
Sun 04:14:00 PM 25.5718 -63.4826 349° North 420 483 36,000  Level FlightAware Transoceanic
Sun 04:15:00 PM 25.6869 -63.5070 349° North 420 483 36,000  Level FlightAware Transoceanic
Sun 04:16:00 PM 25.8020 -63.5315 349° North 420 483 36,000  Level FlightAware Transoceanic
Sun 04:17:00 PM 25.9170 -63.5561 349° North 420 483 36,000  Level FlightAware Transoceanic
Sun 04:18:00 PM 26.0321 -63.5807 349° North 420 483 36,000  Level FlightAware Transoceanic
Sun 04:19:00 PM 26.1471 -63.6054 349° North 420 483 36,000  Level FlightAware Transoceanic
Sun 04:20:00 PM 26.2622 -63.6301 349° North 420 483 36,000  Level FlightAware Transoceanic
Sun 04:21:00 PM 26.3772 -63.6548 349° North 420 483 36,000  Level FlightAware Transoceanic
Sun 04:22:00 PM 26.4923 -63.6796 349° North 420 483 36,000  Level FlightAware Transoceanic
Sun 04:23:00 PM 26.6073 -63.7044 349° North 420 483 36,000  Level FlightAware Transoceanic
Sun 04:24:00 PM 26.7223 -63.7294 349° North 420 483 36,000  Level FlightAware Transoceanic
Sun 04:25:00 PM 26.8373 -63.7543 349° North 420 483 36,000  Level FlightAware Transoceanic
Sun 04:26:00 PM 26.9524 -63.7793 349° North 420 483 36,000  Level FlightAware Transoceanic
Sun 04:27:00 PM 27.0674 -63.8044 349° North 420 483 36,000  Level FlightAware Transoceanic
Sun 04:28:00 PM 27.1824 -63.8294 349° North 420 483 36,000  Level FlightAware Transoceanic
Sun 04:29:00 PM 27.2974 -63.8546 349° North 420 483 36,000  Level FlightAware Transoceanic
Sun 04:30:00 PM 27.4124 -63.8798 349° North 420 483 36,000  Level FlightAware Transoceanic
Sun 04:31:00 PM 27.5274 -63.9051 349° North 420 483 36,000  Level FlightAware Transoceanic
Sun 04:32:00 PM 27.6424 -63.9304 349° North 420 483 36,000  Level FlightAware Transoceanic
Sun 04:33:00 PM 27.7574 -63.9557 349° North 420 483 36,000  Level FlightAware Transoceanic
Sun 04:34:00 PM 27.8723 -63.9812 349° North 420 483 36,000  Level FlightAware Transoceanic
Sun 04:35:00 PM 27.9873 -64.0066 349° North 420 483 36,000  Level FlightAware Transoceanic
Sun 04:36:00 PM 28.1023 -64.0322 349° North 420 483 36,000  Level FlightAware Transoceanic
Sun 04:37:00 PM 28.2173 -64.0577 349° North 420 483 36,000  Level FlightAware Transoceanic
Sun 04:38:00 PM 28.3322 -64.0834 349° North 420 483 36,000  Level FlightAware Transoceanic
Sun 04:39:00 PM 28.4472 -64.1091 349° North 420 483 36,000  Level FlightAware Transoceanic
Sun 04:40:00 PM 28.5621 -64.1348 349° North 420 483 36,000  Level FlightAware Transoceanic
Sun 04:41:00 PM 28.6771 -64.1606 349° North 420 483 36,000  Level FlightAware Transoceanic
Sun 04:42:00 PM 28.7920 -64.1865 349° North 420 483 36,000  Level FlightAware Transoceanic
Sun 04:43:00 PM 28.9070 -64.2124 349° North 420 483 36,000  Level FlightAware Transoceanic
Sun 04:44:00 PM 29.0219 -64.2384 349° North 420 483 36,000  Level FlightAware Transoceanic
Sun 04:45:00 PM 29.1368 -64.2644 349° North 420 483 36,000  Level FlightAware Transoceanic
Sun 04:46:00 PM 29.2518 -64.2905 349° North 420 483 36,000  Level FlightAware Transoceanic
Sun 04:47:00 PM 29.3667 -64.3167 349° North 420 483 36,000  Level FlightAware Transoceanic
Sun 04:48:00 PM 29.4778 -64.3409 349° North 420 483 36,000  Level FlightAware Transoceanic
Sun 04:48:59 PM 29.3681 -64.3325 349° North 435 501 36,000  Level New York Center
Sun 04:49:00 PM 29.5889 -64.3652 349° North 420 483 36,000  Level FlightAware Transoceanic
Sun 04:49:59 PM 29.4669 -64.3542 349° North 423 487 36,000  Level New York Center
Sun 04:50:00 PM 29.7001 -64.3895 349° North 420 483 36,000  Level FlightAware Transoceanic
Sun 04:50:58 PM 29.5864 -64.3719 353° North 407 468 36,000  Level New York Center
Sun 04:51:00 PM 29.8112 -64.4139 349° North 420 483 36,000  Level FlightAware Transoceanic
Sun 04:51:58 PM 29.7003 -64.3997 348° North 407 468 36,000  Level New York Center
Sun 04:52:00 PM 29.9223 -64.4384 349° North 420 483 36,000  Level FlightAware Transoceanic
Sun 04:52:59 PM 29.7969 -64.4214 349° North 402 463 36,000  Level New York Center
Sun 04:53:00 PM 30.0334 -64.4629 349° North 420 483 36,000  Level FlightAware Transoceanic
Sun 04:54:00 PM 29.9189 -64.4464 350° North 402 463 36,000 205 Level New York Center
Sun 04:54:57 PM 30.0178 -64.4681 349° North 397 457 36,400 864 Climbing New York Center
Sun 04:55:58 PM 30.1356 -64.4933 349° North 392 451 37,700 787 Climbing New York Center
Sun 04:56:59 PM 30.2469 -64.5144 351° North 392 451 38,000 151 Climbing New York Center
Sun 04:57:57 PM 30.3414 -64.5317 351° North 392 451 38,000  Level New York Center
Sun 04:58:57 PM 30.4572 -64.5572 349° North 392 451 38,000  Level New York Center
Sun 04:59:58 PM 30.5625 -64.5811 349° North 387 445 38,000  Level New York Center
Sun 05:00:59 PM 30.6556 -64.6108 345° North 392 451 38,000  Level New York Center
Sun 05:01:59 PM 30.7736 -64.6411 348° North 387 445 38,000  Level New York Center
Sun 05:02:59 PM 30.8664 -64.6636 348° North 382 440 38,000  Level New York Center
Sun 05:04:00 PM 30.9842 -64.6869 350° North 382 440 38,000  Level New York Center
Sun 05:04:58 PM 31.0914 -64.7111 349° North 382 440 38,000  Level New York Center
Sun 05:05:59 PM 31.1839 -64.7289 351° North 382 440 38,000  Level New York Center
Sun 05:07:00 PM 31.3039 -64.7544 350° North 382 440 38,000  Level New York Center
Sun 05:07:57 PM 31.4094 -64.7789 349° North 387 445 38,000  Level New York Center
Sun 05:08:57 PM 31.5081 -64.7989 350° North 387 445 38,000  Level New York Center
Sun 05:09:58 PM 31.6261 -64.8225 350° North 393 452 38,000  Level New York Center
Sun 05:10:58 PM 31.7189 -64.8478 347° North 393 452 38,000  Level New York Center
Sun 05:11:59 PM 31.8369 -64.8739 349° North 388 447 38,000  Level New York Center
Sun 05:13:00 PM 31.9464 -64.8981 349° North 395 455 38,000  Level New York Center
Sun 05:13:57 PM 32.0411 -64.9211 348° North 395 455 38,000  Level New York Center
Sun 05:14:58 PM 32.1592 -64.9472 349° North 395 455 38,000  Level New York Center
Sun 05:15:59 PM 32.2647 -64.9744 348° North 395 455 38,000  Level New York Center
Sun 05:16:59 PM 32.3617 -64.9972 349° North 389 448 38,000  Level New York Center
Sun 05:17:57 PM 32.4817 -65.0236 349° North 395 455 38,000  Level New York Center
Sun 05:18:58 PM 32.5892 -65.0483 349° North 395 455 38,000  Level New York Center
Sun 05:19:59 PM 32.6881 -65.0689 350° North 395 455 38,000  Level New York Center
Sun 05:20:58 PM 32.8039 -65.0931 350° North 389 448 38,000  Level New York Center
Sun 05:21:59 PM 32.8989 -65.1164 348° North 394 453 38,000  Level New York Center
Sun 05:22:59 PM 33.0147 -65.1408 350° North 394 453 38,000  Level New York Center
Sun 05:24:00 PM 33.1222 -65.1683 348° North 394 453 38,000  Level New York Center
Sun 05:24:57 PM 33.2169 -65.1892 350° North 394 453 38,000  Level New York Center
Sun 05:25:58 PM 33.3353 -65.2186 348° North 394 453 38,000  Level New York Center
Sun 05:26:59 PM 33.4428 -65.2464 348° North 394 453 38,000  Level New York Center
Sun 05:27:59 PM 33.5397 -65.2672 350° North 394 453 38,000  Level New York Center
Sun 05:29:00 PM 33.6558 -65.2969 348° North 394 453 38,000  Level New York Center
Sun 05:29:58 PM 33.7506 -65.3208 348° North 388 447 38,000  Level New York Center
Sun 05:30:59 PM 33.8708 -65.3478 349° North 393 452 38,000  Level New York Center
Sun 05:31:58 PM 33.9825 -65.3756 348° North 398 458 38,000  Level New York Center
Sun 05:32:58 PM 34.0794 -65.3992 349° North 398 458 38,000  Level New York Center
Sun 05:33:57 PM 34.1997 -65.4289 348° North 398 458 38,000  Level New York Center
Sun 05:34:59 PM 34.3075 -65.4572 348° North 398 458 38,000  Level New York Center
Sun 05:36:00 PM 34.4064 -65.4808 349° North 398 458 38,000  Level New York Center
Sun 05:36:59 PM 34.5247 -65.5136 347° North 398 458 38,000  Level New York Center
Sun 05:37:59 PM 34.6217 -65.5375 349° North 391 450 38,000  Level New York Center
Sun 05:38:58 PM 34.7422 -65.5703 347° North 391 450 38,000  Level New York Center
Sun 05:39:58 PM 34.8514 -65.5911 351° North 402 463 38,000  Level New York Center
Sun 05:40:59 PM 34.9489 -65.6228 345° North 397 457 38,000  Level New York Center
Sun 05:41:59 PM 35.0708 -65.6481 350° North 397 457 38,000  Level New York Center
Sun 05:42:59 PM 35.1681 -65.6772 346° North 397 457 38,000  Level New York Center
Sun 05:44:00 PM 35.2844 -65.7158 345° North 397 457 38,000 -3 Level New York Center
Sun 05:45:00 PM 35.3869 -65.7655 338° Northwest  Level FlightAware Approximate
Sun 05:52:00 PM 36.1033 -66.1167 338° Northwest  Level FlightAware Approximate
Sun 05:53:00 PM 36.2055 -66.1674 338° Northwest  Level FlightAware Approximate
Sun 05:54:00 PM 36.3078 -66.2182 338° Northwest  Level FlightAware Approximate
Sun 05:55:00 PM 36.4100 -66.2691 338° Northwest  Level FlightAware Approximate
Sun 05:56:00 PM 36.5122 -66.3202 338° Northwest  Level FlightAware Approximate
Sun 05:57:00 PM 36.6143 -66.3715 338° Northwest  Level FlightAware Approximate
Sun 05:58:00 PM 36.7165 -66.4228 338° Northwest  Level FlightAware Approximate
Sun 05:59:00 PM 36.8186 -66.4743 338° Northwest  Level FlightAware Approximate
Sun 06:00:00 PM 36.9207 -66.5259 338° Northwest  Level FlightAware Approximate
Sun 06:01:00 PM 37.0228 -66.5777 338° Northwest  Level FlightAware Approximate
Sun 06:02:00 PM 37.1247 -66.6301 338° Northwest  Level FlightAware Approximate
Sun 06:03:00 PM 37.2265 -66.6831 337° Northwest  Level FlightAware Approximate
Sun 06:04:00 PM 37.3282 -66.7362 337° Northwest  Level FlightAware Approximate
Sun 06:05:00 PM 37.4299 -66.7895 337° Northwest  Level FlightAware Approximate
Sun 06:06:00 PM 37.5311 -66.8442 337° Northwest  Level FlightAware Approximate
Sun 06:07:00 PM 37.6322 -66.8994 337° Northwest  Level FlightAware Approximate
Sun 06:08:00 PM 37.7332 -66.9548 337° Northwest  Level FlightAware Approximate
Sun 06:09:00 PM 37.8343 -67.0103 337° Northwest  Level FlightAware Approximate
Sun 06:10:00 PM 37.9353 -67.0660 337° Northwest  Level FlightAware Approximate
Sun 06:11:00 PM 38.0368 -67.1201 338° Northwest  Level FlightAware Approximate
Sun 06:12:00 PM 38.1386 -67.1737 338° Northwest  Level FlightAware Approximate
Sun 06:13:00 PM 38.2403 -67.2273 337° Northwest  Level FlightAware Approximate
Sun 06:14:00 PM 38.3420 -67.2812 337° Northwest  Level FlightAware Approximate
Sun 06:15:00 PM 38.4437 -67.3352 337° Northwest  Level FlightAware Approximate
Sun 06:16:00 PM 38.5454 -67.3893 337° Northwest  Level FlightAware Approximate
Sun 06:16:22 PM 38.5153 -67.4128 336° Northwest 437 503 37,900  Level New York Center
Sun 06:17:00 PM 38.6470 -67.4436 337° Northwest  Level FlightAware Approximate
Sun 06:17:22 PM 38.6128 -67.4642 338° Northwest 407 468 37,900  Level New York Center
Sun 06:18:00 PM 38.7486 -67.4980 337° Northwest  Level FlightAware Approximate
Sun 06:18:23 PM 38.7122 -67.5183 337° Northwest 387 445 37,900  Level New York Center
Sun 06:19:00 PM 38.8490 -67.5561 335° Northwest  Level FlightAware Approximate
Sun 06:19:24 PM 38.8117 -67.5753 336° Northwest 387 445 38,000  Level New York Center
Sun 06:20:00 PM 38.9512 -67.6048 336° Northwest  Level FlightAware Approximate
Sun 06:20:21 PM 38.9153 -67.6242 340° North 387 445 38,000  Level New York Center
Sun 06:21:00 PM 39.0520 -67.6617 336° Northwest  Level FlightAware Approximate
Sun 06:21:22 PM 39.0108 -67.6894 332° Northwest 387 445 38,000  Level New York Center
Sun 06:22:23 PM 39.0981 -67.7608 328° Northwest 382 440 38,000 -50 Level New York Center
Sun 06:23:23 PM 39.1814 -67.8378 324° Northwest 377 434 37,900 -50 Descending New York Center
Sun 06:24:24 PM 39.2664 -67.9147 325° Northwest 372 428 37,900  Level New York Center
Sun 06:25:21 PM 39.3478 -67.9975 322° Northwest 372 428 37,900  Level New York Center
Sun 06:26:21 PM 39.4306 -68.0722 325° Northwest 372 428 37,900 446 Level New York Center
Sun 06:27:22 PM 39.5158 -68.1472 326° Northwest 372 428 38,800 545 Climbing New York Center
Sun 06:28:22 PM 39.6008 -68.2275 324° Northwest 372 428 39,000 101 Climbing New York Center
Sun 06:29:21 PM 39.6836 -68.3056 324° Northwest 372 428 39,000 -50 Level New York Center
Sun 06:30:21 PM 39.7667 -68.3839 324° Northwest 372 428 38,900 -50 Descending New York Center
Sun 06:31:22 PM 39.8514 -68.4594 326° Northwest 372 428 38,900  Level New York Center
Sun 06:32:23 PM 39.9342 -68.5353 325° Northwest 372 428 38,900 50 Level New York Center
Sun 06:33:23 PM 40.0208 -68.6111 326° Northwest 372 428 39,000 51 Climbing New York Center
Sun 06:34:21 PM 40.1056 -68.6900 325° Northwest 377 434 39,000  Level New York Center
Sun 06:35:24 PM 40.1964 -68.7661 327° Northwest 377 434 39,000 -50 Level New York Center
Sun 06:36:21 PM 40.2792 -68.8483 323° Northwest 383 441 38,900 -51 Descending New York Center
Sun 06:37:22 PM 40.3678 -68.9331 324° Northwest 388 447 38,900  Level New York Center
Sun 06:39:21 PM 40.5311 -69.0925 323° Northwest 367 422 38,900  Level Boston Center
Sun 06:40:21 PM 40.6100 -69.1736 322° Northwest 362 417 38,900 48 Level Boston Center
Sun 06:41:25 PM 40.6911 -69.2542 323° Northwest 364 419 39,000 48 Climbing Boston Center
Sun 06:42:25 PM 40.7725 -69.3369 322° Northwest 367 422 39,000 -50 Level Boston Center
Sun 06:43:25 PM 40.8539 -69.4192 323° Northwest 369 425 38,900 -48 Descending Boston Center
Sun 06:44:29 PM 40.9358 -69.4997 323° Northwest 371 427 38,900 48 Level Boston Center
Sun 06:45:29 PM 41.0358 -69.5956 324° Northwest 373 429 39,000 50 Climbing Boston Center
Sun 06:46:30 PM 41.1181 -69.6781 323° Northwest 374 430 39,000 -49 Level Boston Center
Sun 06:47:31 PM 41.2000 -69.7611 323° Northwest 371 427 38,900 -48 Descending Boston Center
Sun 06:48:34 PM 41.2836 -69.8433 324° Northwest 379 436 38,900  Level Boston Center
Sun 06:49:36 PM 41.3675 -69.9289 323° Northwest 384 442 38,900 49 Level Boston Center
Sun 06:50:36 PM 41.4522 -70.0144 323° Northwest 386 444 39,000 49 Climbing Boston Center
Sun 06:51:38 PM 41.5369 -70.0994 323° Northwest 384 442 39,000 -49 Level Boston Center
Sun 06:52:38 PM 41.6219 -70.1858 323° Northwest 385 443 38,900 -50 Descending Boston Center
Sun 06:53:39 PM 41.7050 -70.2722 322° Northwest 382 440 38,900 50 Level Boston Center
Sun 06:54:39 PM 41.8031 -70.3742 322° Northwest 384 442 39,000 48 Climbing Boston Center
Sun 06:55:43 PM 41.8875 -70.4608 323° Northwest 384 442 39,000  Level Boston Center
Sun 06:56:42 PM 41.9642 -70.5406 322° Northwest 383 441 39,000 -49 Level Boston Center
Sun 06:57:46 PM 42.0489 -70.6269 323° Northwest 381 438 38,900 -48 Descending Boston Center
Sun 06:58:46 PM 42.1386 -70.7197 323° Northwest 378 435 38,900 50 Level Boston Center
Sun 06:59:46 PM 42.2225 -70.8072 322° Northwest 381 438 39,000 16 Climbing Boston Center
Sun 07:04:55 PM 42.6450 -71.2550 322° Northwest 100 115 39,000  Level FlightAware ADS-B
Sun 07:05:41 PM 42.6860 -71.2980 322° Northwest 100 115 39,000  Level FlightAware ADS-B
Sun 07:06:10 PM 42.7560 -71.3720 322° Northwest 393 452 39,000  Level FlightAware ADS-B
Sun 07:06:50 PM 42.8100 -71.4310 321° Northwest 392 451 39,000  Level FlightAware ADS-B
Sun 07:07:38 PM 42.8710 -71.4930 323° Northwest 390 449 39,000  Level FlightAware ADS-B
Sun 07:08:26 PM 42.9300 -71.5540 323° Northwest 390 449 39,000  Level FlightAware ADS-B
Sun 07:09:14 PM 42.9880 -71.6140 323° Northwest 390 449 39,000  Level FlightAware ADS-B
Sun 07:09:38 PM 43.0180 -71.6440 324° Northwest 390 449 39,000  Level FlightAware ADS-B
Sun 07:10:55 PM 43.1600 -71.8070 320° Northwest 393 452 39,000 44 Level FlightAware ADS-B
Sun 07:11:55 PM 43.2490 -71.9050 321° Northwest 391 450 39,100 69 Climbing FlightAware ADS-B
Sun 07:12:22 PM 43.2810 -71.9410 321° Northwest 391 450 39,100  Level FlightAware ADS-B
Sun 07:13:23 PM 43.3540 -72.0220 321° Northwest 391 450 39,100  Level FlightAware ADS-B
Sun 07:14:11 PM 43.4120 -72.0860 321° Northwest 391 450 39,100  Level FlightAware ADS-B
Sun 07:14:47 PM 43.4550 -72.1340 321° Northwest 391 450 39,100  Level FlightAware ADS-B
Sun 07:15:23 PM 43.4980 -72.1820 321° Northwest 391 450 39,100  Level FlightAware ADS-B
Sun 07:16:10 PM 43.5540 -72.2450 321° Northwest 391 450 39,100  Level FlightAware ADS-B
Sun 07:17:11 PM 43.6270 -72.3260 321° Northwest 391 450 39,100  Level FlightAware ADS-B
Sun 07:17:47 PM 43.6700 -72.3740 321° Northwest 391 450 39,100  Level FlightAware ADS-B
Sun 07:18:59 PM 43.7560 -72.4710 321° Northwest 391 450 39,100  Level FlightAware ADS-B
Sun 07:19:47 PM 43.8130 -72.5350 321° Northwest 391 450 39,100  Level FlightAware ADS-B
Sun 07:20:23 PM 43.8560 -72.5840 321° Northwest 391 450 39,100  Level FlightAware ADS-B
Sun 07:21:23 PM 43.9280 -72.6640 321° Northwest 391 450 39,100 -3,027 Level FlightAware ADS-B
Sun 07:22:14 PM 44.1289 -72.8831 321° Northwest 382 440 33,500 -3,982 Descending Boston Center
Sun 07:23:16 PM 44.2058 -72.9683 322° Northwest 360 414 31,600 -1,869 Descending Boston Center
Sun 07:24:16 PM 44.2806 -73.0539 321° Northwest 350 403 29,700 -1,835 Descending Boston Center
Sun 07:25:17 PM 44.3514 -73.1353 321° Northwest 334 384 27,900 -2,016 Descending Boston Center
Sun 07:26:18 PM 44.4339 -73.2297 321° Northwest 320 368 25,600 -2,033 Descending Boston Center
Sun 07:27:18 PM 44.5014 -73.3081 320° Northwest 315 362 23,800 -1,742 Descending Boston Center
Sun 07:28:22 PM 44.5669 -73.3833 321° Northwest 305 351 22,000 -1,694 Descending Boston Center
Sun 07:29:22 PM 44.6300 -73.4564 321° Northwest 295 339 20,300 -1,686 Descending Boston Center
Sun 07:30:23 PM 44.6956 -73.5211 325° Northwest 294 338 18,600 -1,587 Descending Boston Center
Sun 07:31:23 PM 44.7764 -73.5314 355° North 289 333 17,100 -1,475 Descending Boston Center
Sun 07:32:25 PM 44.8544 -73.5408 355° North 281 323 15,600 -1,463 Descending Boston Center
Sun 07:33:26 PM 44.9322 -73.5494 356° North 280 322 14,100 -1,512 Descending Boston Center
Sun 07:34:28 PM 45.0100 -73.5578 356° North 278 320 12,500 -1,545 Descending Boston Center
Sun 07:35:38 PM 45.1000 -73.5500 North 270 311 10,700 -1,385 Descending Montreal Center
Sun 07:36:38 PM 45.1833 -73.5667 352° North 280 322 9,500 -1,200 Descending Montreal Center
Sun 07:37:38 PM 45.2500 -73.5667 360° North 270 311 8,300 -1,100 Descending Montreal Center
Sun 07:38:38 PM 45.3167 -73.5833 350° North 260 299 7,300 -1,100 Descending Montreal Center
Sun 07:39:38 PM 45.4000 -73.5833 360° North 260 299 6,100 -1,250 Descending Montreal Center
Sun 07:40:38 PM 45.4667 -73.5000 41° Northeast 270 311 4,800 -1,050 Descending Montreal Center
Sun 07:41:38 PM 45.5167 -73.4500 35° Northeast 240 276 4,000 -700 Descending Montreal Center
Sun 07:42:38 PM 45.5667 -73.4500 360° North 200 230 3,400 -500 Descending Montreal Center
Sun 07:43:38 PM 45.6000 -73.5167 306° West 180 207 3,000 -200 Descending Montreal Center
Sun 07:44:38 PM 45.5833 -73.5667 245° Southwest 180 207 3,000 -450 Level Montreal Center
Sun 07:45:38 PM 45.5500 -73.6167 226° Southwest 180 207 2,100 -900 Descending Montreal Center
Sun 07:46:38 PM 45.5167 -73.6667 226° Southwest 150 173 1,200 -750 Descending Montreal Center
Sun 07:47:38 PM 45.4833 -73.7000 215° Southwest 120 138 600 -367 Descending Montreal Center
Sun 07:49:38 PM 45.4500 -73.7500 226° Southwest 30 35 100 -250 Descending Montreal Center

Login

Don't have an account? Register now (free) for customized features, flight alerts, and more!